Airfield :
LOGIN :

Register | Disclaimer

   EN    FR    IT 

 










Legend :    VFR   Marginal VFR   IFR   Intensive IFR   Very Intensive IFR
Visi :
Ceiling :
>= 8 km
>= 3000ft
5 to 8 km
1000 to 3000 ft
1500m to 5 km
500 to 1000 ft
800 to 1500m
200 to 500 ft
< 800m
< 200 ft
Symbols :   Thunderstorms  Fog  Heavy snow  Heavy precipitations  Wind > 20 kt
SIGMETs :     Misc.  Thunderstorms  Icing  Turbulence  Mountain Waves  Volcanic Ashes







- Airport Elevation : 353 ft
- IATA code : ZAG


LDZA - Zagreb Pleso

CURRENT METAR :
  • 210200Z 23003KT 200V260 CAVOK 03/01 Q1024 NOSIG

EXPIRED METARs :
  • 210130Z VRB02KT CAVOK 04/02 Q1024 NOSIG
  • 210100Z VRB01KT CAVOK 04/02 Q1025 NOSIG
  • 210030Z 24003KT CAVOK 05/02 Q1025 NOSIG
  • 210000Z 25004KT CAVOK 05/02 Q1025 NOSIG
  • 202330Z VRB01KT CAVOK 06/03 Q1025 NOSIG

TAF TAF LDZA
Valid from the 21 at 00:00 until the 22 at 00:00 UTC


202325Z 2100/2200 VRB02KT CAVOK TX22/2112Z TN03/2104Z
ATIS : +385 1 6-259-214
No reported NOTAMs for that airfield.



MET'MAP, your aeronautical weather chart ! - Copyright ORBIFLY December 2007 - Disclaimer

ORBIFLY MET'MAP TEAM :

Programming & Development : Alexandra Zaïnal
Concept & Development : Baudouin d'Aumeries
Co-Development & Prog : Marc-Olivier Méhu
Technical & hardware support : Manuel Goepfert

Contact : metmap@orbifly.com




SOURCES & CREDITS :

   NOAA